Groves, North Carolina
Current Conditions -  °F | °C
As of 2:40 AM on Monday 22 Dec 2014 (Local Time) from KAKH Reporting Station
Light Rain Light Rain  
Wind Chill: 38°   Ceiling: 3000
Heat Index: 43°   Visibility: 2mi
Dew Point: 40°   Wind: 8mph
Humidity: 89%   Direction: 30°NNE
Pressure: 30.14"   Gusts: NA
Location:  35.2205°N, 81.2501°W
Report Text: KAKH 220740Z AUTO 03007KT 2SM -RA BR FEW005 BKN030 OVC048 06/04 A3014 RMK AO2 P0004 T00610044
Loading
Personal Weather Stations






























Interactive Weather Map New forecast layout! Learn more

10-Day Weather Forecast

Advertisements
Track Severe Weather on mobile